^^
Saratoga-Weather Station Historical Data
Daily Summary for July 26, 2020 Units:  English    Metric   Both
Daily Weekly Monthly Yearly Custom
  High: Low: Average:
Temperature: 40.6 °F 33.4 °F 36.5 °F
Dew Point: 40.5 °F 32.9 °F 36 °F
Humidity: 99% 98% 98%
Wind Speed: 2.9mph 0mph 0.1mph
Wind Gust: 4mph - -
Wind- - ESE
Pressure: 30.1 in 30 in -
Precipitation: 0.01 in    
Historical Graphs
 
 
Tabular Data for July 26, 2020
Time Temperature Dew Point Pressure Wind Wind Speed Wind Gust Humidity Rainfall Rate (Hourly) solar
00:00 35.8 °F 35.2 °F 30.1 in Calm     98% 0 in 0 W/m2
00:05 35.8 °F 35.2 °F 30.1 in Calm     98% 0 in 0 W/m2
00:10 35.8 °F 35.2 °F 30.1 in Calm     98% 0 in 0 W/m2
00:15 35.8 °F 35.2 °F 30.1 in Calm     98% 0 in 0 W/m2
00:20 35.8 °F 35.2 °F 30.1 in Calm     98% 0 in 0 W/m2
00:25 35.8 °F 35.2 °F 30.1 in Calm     98% 0 in 0 W/m2
00:30 35.8 °F 35.2 °F 30.1 in Calm     98% 0 in 0 W/m2
00:35 35.8 °F 35.2 °F 30.1 in Calm     98% 0 in 0 W/m2
00:40 35.4 °F 34.9 °F 30.1 in Calm     98% 0 in 0 W/m2
00:45 35.2 °F 34.7 °F 30.1 in SE 2.9 mph 3 mph 98% 0 in 0 W/m2
00:50 35.2 °F 34.7 °F 30.1 in East 2.9 mph 3 mph 98% 0 in 0 W/m2
00:55 35.1 °F 34.5 °F 30.1 in ESE 0.9 mph 1 mph 98% 0 in 0 W/m2
01:00 35.1 °F 34.5 °F 30.1 in Calm     98% 0 in 0 W/m2
01:05 35.1 °F 34.5 °F 30.1 in Calm   3 mph 98% 0 in 0 W/m2
01:10 34.9 °F 34.3 °F 30.1 in Calm     98% 0 in 0 W/m2
01:15 34.9 °F 34.3 °F 30.1 in Calm   3 mph 98% 0 in 0 W/m2
01:20 34.9 °F 34.3 °F 30.1 in ESE 2 mph 3 mph 98% 0 in 0 W/m2
01:25 34.7 °F 34.2 °F 30.1 in Calm     98% 0 in 0 W/m2
01:30 34.7 °F 34.2 °F 30.1 in Calm     98% 0 in 0 W/m2
01:35 34.9 °F 34.3 °F 30.1 in Calm     98% 0 in 0 W/m2
01:40 34.9 °F 34.3 °F 30.1 in Calm     98% 0 in 0 W/m2
01:45 34.9 °F 34.3 °F 30.1 in Calm     98% 0 in 0 W/m2
01:50 34.9 °F 34.3 °F 30.1 in Calm     98% 0 in 0 W/m2
01:55 34.9 °F 34.3 °F 30.1 in Calm     98% 0 in 0 W/m2
02:00 34.7 °F 34.2 °F 30.1 in Calm     98% 0 in 0 W/m2
02:05 34.7 °F 34.2 °F 30.1 in Calm   2 mph 98% 0 in 0 W/m2
02:10 34.7 °F 34.2 °F 30.1 in Calm     98% 0 in 0 W/m2
02:15 34.7 °F 34.2 °F 30.1 in Calm   3 mph 98% 0 in 0 W/m2
02:20 34.7 °F 34.2 °F 30.1 in Calm     98% 0 in 0 W/m2
02:25 34.5 °F 34 °F 30.1 in Calm   2 mph 98% 0 in 0 W/m2
02:30 34.5 °F 34 °F 30.1 in Calm     98% 0 in 0 W/m2
02:35 34.5 °F 34 °F 30.1 in Calm   2 mph 98% 0 in 0 W/m2
02:40 34.5 °F 34 °F 30.1 in Calm     98% 0 in 0 W/m2
02:45 34.5 °F 34 °F 30.1 in Calm     98% 0 in 0 W/m2
02:50 34.7 °F 34.2 °F 30.1 in Calm     98% 0 in 0 W/m2
02:55 34.7 °F 34.2 °F 30.1 in Calm   1 mph 98% 0 in 0 W/m2
03:00 34.5 °F 34 °F 30.1 in ESE 2 mph 3 mph 98% 0 in 0 W/m2
03:05 34.5 °F 34 °F 30.1 in Calm     98% 0 in 0 W/m2
03:10 34.5 °F 34 °F 30.1 in Calm     98% 0 in 0 W/m2
03:15 34.5 °F 34 °F 30.1 in Calm   2 mph 98% 0 in 0 W/m2
03:20 34.5 °F 34 °F 30.1 in Calm   1 mph 98% 0 in 0 W/m2
03:25 34.5 °F 34 °F 30.1 in Calm     98% 0 in 0 W/m2
03:30 34.5 °F 34 °F 30.1 in Calm     98% 0 in 0 W/m2
03:35 34.3 °F 33.8 °F 30.1 in Calm     98% 0 in 0 W/m2
03:40 34.3 °F 33.8 °F 30.1 in Calm     98% 0 in 0 W/m2
03:45 34.3 °F 33.8 °F 30.1 in Calm     98% 0 in 0 W/m2
03:51 34.3 °F 33.8 °F 30.1 in Calm     98% 0 in 0 W/m2
03:56 34.3 °F 33.8 °F 30.1 in Calm     98% 0.01 in 0 W/m2
04:01 34.3 °F 33.8 °F 30.1 in Calm     98% 0.01 in 0 W/m2
04:06 34.3 °F 33.8 °F 30.1 in Calm     98% 0.01 in 0 W/m2
04:11 34.3 °F 33.8 °F 30.1 in Calm     98% 0.01 in 0 W/m2
04:16 34.3 °F 33.8 °F 30.1 in Calm     98% 0.01 in 0 W/m2
04:21 34.3 °F 33.8 °F 30.1 in Calm     98% 0.01 in 0 W/m2
04:26 34.3 °F 33.8 °F 30.1 in Calm     98% 0.01 in 0 W/m2
04:31 34.3 °F 33.8 °F 30.1 in Calm     98% 0.01 in 0 W/m2
04:36 34.2 °F 33.6 °F 30.1 in Calm     98% 0.01 in 0 W/m2
04:41 34.2 °F 33.6 °F 30.1 in Calm     98% 0.01 in 0 W/m2
04:46 34.3 °F 33.8 °F 30.1 in Calm     98% 0.01 in 0 W/m2
04:51 34.2 °F 33.6 °F 30.1 in Calm     98% 0.01 in 0 W/m2
04:56 34.3 °F 33.8 °F 30.1 in Calm     98% 0 in 0 W/m2
05:01 34.3 °F 33.8 °F 30.1 in Calm     98% 0 in 0 W/m2
05:06 34.3 °F 33.8 °F 30.1 in Calm   2 mph 98% 0 in 0 W/m2
05:11 34.3 °F 33.8 °F 30.1 in East 2.9 mph 3 mph 98% 0 in 0 W/m2
05:16 34.2 °F 33.6 °F 30.1 in Calm     98% 0 in 0 W/m2
05:21 34.2 °F 33.6 °F 30.1 in Calm   1 mph 98% 0 in 0 W/m2
05:26 34 °F 33.4 °F 30.1 in East 0.9 mph 2 mph 98% 0 in 0 W/m2
05:31 34 °F 33.4 °F 30.1 in Calm     98% 0 in 0 W/m2
05:36 34 °F 33.4 °F 30.1 in Calm   1 mph 98% 0 in 0 W/m2
05:41 34 °F 33.4 °F 30.1 in Calm   1 mph 98% 0 in 0 W/m2
05:46 34 °F 33.4 °F 30.1 in Calm     98% 0 in 0 W/m2
05:51 34 °F 33.4 °F 30.1 in Calm     98% 0 in 0 W/m2
05:56 33.8 °F 33.3 °F 30.1 in Calm     98% 0 in 0 W/m2
06:01 33.8 °F 33.3 °F 30.1 in Calm     98% 0 in 0 W/m2
06:06 33.8 °F 33.3 °F 30.1 in Calm     98% 0 in 0 W/m2
06:11 33.6 °F 33.1 °F 30.1 in Calm     98% 0 in 0 W/m2
06:16 33.6 °F 33.1 °F 30.1 in Calm     98% 0 in 0 W/m2
06:21 33.6 °F 33.1 °F 30.1 in Calm     98% 0 in 0 W/m2
06:26 33.6 °F 33.1 °F 30.1 in Calm     98% 0 in 0 W/m2
06:31 33.6 °F 33.1 °F 30.1 in Calm     98% 0 in 0 W/m2
06:36 33.6 °F 33.1 °F 30.1 in East 0.9 mph 2 mph 98% 0 in 0 W/m2
06:41 33.6 °F 33.1 °F 30.1 in Calm   2 mph 98% 0 in 0 W/m2
06:46 33.4 °F 32.9 °F 30.1 in Calm   1 mph 98% 0 in 0 W/m2
06:51 33.4 °F 32.9 °F 30.1 in Calm   2 mph 98% 0 in 0 W/m2
06:56 33.4 °F 32.9 °F 30.1 in Calm   1 mph 98% 0 in 0 W/m2
07:01 33.4 °F 32.9 °F 30.1 in Calm     98% 0 in 0 W/m2
07:06 33.4 °F 32.9 °F 30.1 in Calm   1 mph 98% 0 in 0 W/m2
07:11 33.4 °F 32.9 °F 30.1 in Calm     98% 0 in 0 W/m2
07:16 33.4 °F 32.9 °F 30.1 in Calm     98% 0 in 0 W/m2
07:21 33.4 °F 32.9 °F 30.1 in Calm   1 mph 98% 0 in 0 W/m2
07:26 33.4 °F 32.9 °F 30.1 in Calm     98% 0 in 0 W/m2
07:31 33.4 °F 32.9 °F 30.1 in Calm     98% 0 in 0 W/m2
07:36 33.4 °F 32.9 °F 30.1 in ESE 2 mph 2 mph 98% 0 in 0 W/m2
07:41 33.4 °F 32.9 °F 30.1 in Calm     98% 0 in 0 W/m2
07:46 33.4 °F 32.9 °F 30.1 in Calm     98% 0 in 0 W/m2
07:51 33.6 °F 33.1 °F 30.1 in Calm     98% 0 in 0 W/m2
07:56 33.6 °F 33.1 °F 30.1 in Calm     98% 0 in 0 W/m2
08:01 33.6 °F 33.1 °F 30.1 in Calm     98% 0 in 0 W/m2
08:06 33.6 °F 33.1 °F 30.1 in Calm     98% 0 in 0 W/m2
08:12 33.6 °F 33.1 °F 30.1 in Calm     98% 0 in 0 W/m2
08:17 33.6 °F 33.1 °F 30.1 in Calm     98% 0 in 0 W/m2
08:22 33.6 °F 33.1 °F 30.1 in Calm     98% 0 in 0 W/m2
08:27 33.6 °F 33.1 °F 30.1 in Calm     98% 0 in 0 W/m2
08:32 33.6 °F 33.1 °F 30.1 in Calm     98% 0 in 0 W/m2
08:37 33.8 °F 33.3 °F 30.1 in Calm     98% 0 in 5 W/m2
08:42 33.8 °F 33.3 °F 30.1 in Calm     98% 0 in 9 W/m2
08:47 33.8 °F 33.3 °F 30.1 in Calm     98% 0 in 11 W/m2
08:52 33.8 °F 33.3 °F 30.1 in Calm     98% 0 in 11 W/m2
08:57 34 °F 33.4 °F 30.1 in Calm     98% 0 in 12 W/m2
09:02 34 °F 33.4 °F 30.1 in Calm     98% 0 in 11 W/m2
09:07 34 °F 33.4 °F 30.1 in Calm     98% 0 in 12 W/m2
09:12 33.8 °F 33.3 °F 30.1 in Calm     98% 0 in 12 W/m2
09:17 34 °F 33.4 °F 30.1 in Calm     98% 0 in 16 W/m2
09:22 34 °F 33.4 °F 30.1 in Calm   1 mph 98% 0 in 32 W/m2
09:27 34 °F 33.4 °F 30.1 in Calm     98% 0 in 33 W/m2
09:32 34.2 °F 33.6 °F 30.1 in Calm     98% 0 in 37 W/m2
09:37 34.2 °F 33.6 °F 30.1 in Calm     98% 0 in 35 W/m2
09:42 34.2 °F 33.6 °F 30.1 in Calm     98% 0 in 35 W/m2
09:47 34.3 °F 33.8 °F 30.1 in Calm     98% 0 in 42 W/m2
09:52 34.3 °F 33.8 °F 30.1 in Calm     98% 0 in 42 W/m2
09:58 34.3 °F 33.8 °F 30.1 in Calm     98% 0 in 46 W/m2
10:03 34.3 °F 33.8 °F 30.1 in Calm     98% 0 in 46 W/m2
10:08 34.3 °F 33.8 °F 30.1 in Calm     98% 0 in 46 W/m2
10:19 34.3 °F 33.8 °F 30.1 in Calm   2 mph 98% 0 in 53 W/m2
10:24 34.3 °F 33.8 °F 30.1 in Calm     98% 0 in 56 W/m2
10:29 34.3 °F 33.8 °F 30.1 in Calm     98% 0 in 62 W/m2
10:34 34.5 °F 34 °F 30.1 in Calm   1 mph 98% 0 in 63 W/m2
10:39 34.5 °F 34 °F 30.1 in Calm     98% 0 in 60 W/m2
10:44 34.7 °F 34.2 °F 30.1 in Calm   1 mph 98% 0 in 65 W/m2
10:49 34.9 °F 34.3 °F 30.1 in Calm     98% 0 in 65 W/m2
10:54 34.9 °F 34.3 °F 30.1 in ESE 0.9 mph 3 mph 98% 0 in 65 W/m2
11:00 34.9 °F 34.3 °F 30.1 in Calm   1 mph 98% 0 in 67 W/m2
11:05 34.9 °F 34.3 °F 30.1 in Calm   3 mph 98% 0 in 39 W/m2
11:10 35.1 °F 34.5 °F 30.1 in Calm   1 mph 98% 0 in 100 W/m2
11:15 35.1 °F 34.5 °F 30.1 in SE 0.9 mph 2 mph 98% 0 in 79 W/m2
11:20 35.2 °F 34.7 °F 30.1 in ESE 0.9 mph 1 mph 98% 0 in 95 W/m2
11:25 35.2 °F 34.7 °F 30.1 in Calm   1 mph 98% 0 in 72 W/m2
11:30 35.2 °F 34.7 °F 30.1 in Calm     98% 0 in 60 W/m2
11:35 35.2 °F 34.7 °F 30.1 in Calm     98% 0 in 81 W/m2
11:40 35.2 °F 34.7 °F 30.1 in Calm   1 mph 98% 0 in 70 W/m2
11:45 35.4 °F 34.9 °F 30.1 in Calm     98% 0 in 51 W/m2
11:50 35.4 °F 34.9 °F 30.1 in Calm   1 mph 98% 0 in 49 W/m2
11:55 35.6 °F 35.1 °F 30.1 in ESE 0.9 mph 1 mph 98% 0 in 56 W/m2
12:00 35.8 °F 35.2 °F 30.1 in Calm   2 mph 98% 0 in 81 W/m2
12:05 35.8 °F 35.2 °F 30.1 in Calm     98% 0 in 86 W/m2
12:10 36 °F 35.4 °F 30.1 in Calm     98% 0 in 95 W/m2
12:15 36 °F 35.4 °F 30.1 in Calm     98% 0 in 130 W/m2
12:20 36 °F 35.4 °F 30.1 in Calm     98% 0 in 142 W/m2
12:25 36.1 °F 35.6 °F 30.1 in Calm     98% 0 in 114 W/m2
12:30 36.3 °F 35.8 °F 30.1 in Calm   2 mph 98% 0 in 116 W/m2
12:35 36.3 °F 35.8 °F 30.1 in ESE 0.9 mph 1 mph 98% 0 in 116 W/m2
12:40 36.5 °F 36 °F 30.1 in ESE 2 mph 3 mph 98% 0 in 144 W/m2
12:45 36.7 °F 36.1 °F 30.1 in ENE 2 mph 3 mph 98% 0 in 151 W/m2
12:50 36.7 °F 36.1 °F 30.1 in East 0.9 mph 3 mph 98% 0 in 130 W/m2
12:55 36.9 °F 36.3 °F 30.1 in ESE 2 mph 3 mph 98% 0 in 111 W/m2
13:00 36.9 °F 36.3 °F 30.1 in ESE 2 mph 4 mph 98% 0 in 93 W/m2
13:05 36.9 °F 36.3 °F 30.1 in Calm   1 mph 98% 0 in 102 W/m2
13:10 36.9 °F 36.3 °F 30.1 in Calm   1 mph 98% 0 in 98 W/m2
13:15 36.9 °F 36.3 °F 30.1 in Calm   1 mph 98% 0 in 65 W/m2
13:20 37 °F 36.5 °F 30.1 in East 2 mph 2 mph 98% 0 in 58 W/m2
13:25 37.2 °F 36.7 °F 30.1 in Calm     98% 0 in 53 W/m2
13:30 37.2 °F 36.7 °F 30.1 in SE 2 mph 2 mph 98% 0 in 72 W/m2
13:35 37.2 °F 36.7 °F 30.1 in Calm   2 mph 98% 0 in 97 W/m2
13:40 37.2 °F 36.7 °F 30.1 in Calm     98% 0 in 100 W/m2
13:45 37.4 °F 36.9 °F 30.1 in Calm     98% 0 in 109 W/m2
13:50 37.6 °F 37 °F 30.1 in Calm     98% 0 in 97 W/m2
13:55 37.6 °F 37 °F 30.1 in Calm   2 mph 98% 0 in 118 W/m2
14:00 37.8 °F 37.2 °F 30.1 in Calm     98% 0 in 86 W/m2
14:05 37.9 °F 37.4 °F 30.1 in Calm     98% 0 in 65 W/m2
14:10 37.9 °F 37.8 °F 30.1 in Calm   1 mph 99% 0 in 69 W/m2
14:15 38.1 °F 37.9 °F 30.1 in Calm     99% 0 in 63 W/m2
14:20 38.1 °F 37.6 °F 30 in Calm     98% 0 in 67 W/m2
14:25 38.3 °F 37.8 °F 30 in Calm     98% 0 in 76 W/m2
14:30 38.5 °F 37.9 °F 30 in Calm   1 mph 98% 0 in 72 W/m2
14:35 38.7 °F 38.1 °F 30 in Calm     98% 0 in 70 W/m2
14:40 38.7 °F 38.5 °F 30 in Calm   1 mph 99% 0 in 86 W/m2
14:45 38.8 °F 38.3 °F 30 in Calm   2 mph 98% 0 in 105 W/m2
14:50 38.8 °F 38.3 °F 30 in Calm   2 mph 98% 0 in 114 W/m2
14:56 39 °F 38.5 °F 30 in Calm     98% 0 in 90 W/m2
15:01 39.2 °F 38.7 °F 30 in Calm     98% 0 in 90 W/m2
15:06 39.4 °F 39.2 °F 30 in Calm     99% 0 in 93 W/m2
15:11 39.4 °F 39.2 °F 30 in Calm     99% 0 in 113 W/m2
15:16 39.6 °F 39 °F 30 in Calm     98% 0 in 98 W/m2
15:21 39.7 °F 39.6 °F 30 in Calm     99% 0 in 88 W/m2
15:26 40.1 °F 39.6 °F 30 in Calm     98% 0 in 84 W/m2
15:31 40.1 °F 39.6 °F 30 in Calm     98% 0 in 62 W/m2
15:36 40.3 °F 39.7 °F 30 in Calm     98% 0 in 63 W/m2
15:41 40.3 °F 40.1 °F 30 in Calm     99% 0 in 58 W/m2
15:46 40.5 °F 40.3 °F 30 in Calm     99% 0 in 44 W/m2
15:51 40.5 °F 40.3 °F 30 in Calm     99% 0 in 42 W/m2
15:56 40.3 °F 40.1 °F 30 in Calm     99% 0 in 40 W/m2
16:01 40.3 °F 39.7 °F 30 in Calm     98% 0 in 39 W/m2
16:06 39.9 °F 39.4 °F 30 in Calm     98% 0 in 30 W/m2
16:11 39.9 °F 39.4 °F 30 in Calm     98% 0 in 35 W/m2
16:16 39.7 °F 39.2 °F 30 in Calm     98% 0 in 33 W/m2
16:21 39.6 °F 39 °F 30 in Calm     98% 0 in 35 W/m2
16:27 39.6 °F 39 °F 30 in Calm     98% 0 in 37 W/m2
16:32 39.6 °F 39 °F 30 in Calm     98% 0 in 42 W/m2
16:37 39.6 °F 39 °F 30 in Calm     98% 0 in 37 W/m2
16:42 39.7 °F 39.2 °F 30 in Calm     98% 0 in 30 W/m2
16:47 39.7 °F 39.2 °F 30 in Calm     98% 0 in 26 W/m2
16:52 39.7 °F 39.2 °F 30 in Calm     98% 0 in 23 W/m2
16:57 39.9 °F 39.4 °F 30 in Calm     98% 0 in 21 W/m2
17:02 39.9 °F 39.4 °F 30 in Calm     98% 0 in 14 W/m2
17:07 39.9 °F 39.4 °F 30 in Calm     98% 0 in 9 W/m2
17:12 39.9 °F 39.4 °F 30 in Calm     98% 0 in 5 W/m2
17:17 39.7 °F 39.2 °F 30 in Calm     98% 0 in 0 W/m2
17:22 39.7 °F 39.2 °F 30 in Calm     98% 0 in 0 W/m2
17:27 39.6 °F 39 °F 30 in Calm     98% 0 in 0 W/m2
17:32 39.4 °F 38.8 °F 30 in Calm     98% 0 in 0 W/m2
17:37 39.4 °F 38.8 °F 30 in Calm     98% 0 in 0 W/m2
17:42 39.4 °F 38.8 °F 30 in Calm     98% 0 in 0 W/m2
17:47 39.4 °F 38.8 °F 30 in Calm     98% 0 in 0 W/m2
17:52 39.4 °F 38.8 °F 30 in Calm     98% 0 in 0 W/m2
17:57 39.4 °F 38.8 °F 30 in Calm     98% 0 in 0 W/m2
18:02 39.4 °F 38.8 °F 30 in Calm     98% 0 in 0 W/m2
18:07 39.4 °F 38.8 °F 30 in Calm     98% 0 in 0 W/m2
18:12 39.2 °F 38.7 °F 30 in Calm     98% 0 in 0 W/m2
18:17 39 °F 38.5 °F 30 in Calm     98% 0 in 0 W/m2
18:22 39 °F 38.5 °F 30 in Calm     98% 0 in 0 W/m2
18:27 38.8 °F 38.3 °F 30 in Calm     98% 0 in 0 W/m2
18:32 38.7 °F 38.1 °F 30 in Calm     98% 0 in 0 W/m2
18:37 38.7 °F 38.1 °F 30 in Calm     98% 0 in 0 W/m2
18:42 38.5 °F 37.9 °F 30 in Calm     98% 0 in 0 W/m2
18:47 38.5 °F 37.9 °F 30 in Calm     98% 0 in 0 W/m2
18:52 38.3 °F 37.8 °F 30 in Calm     98% 0 in 0 W/m2
18:57 38.1 °F 37.6 °F 30 in Calm     98% 0 in 0 W/m2
19:02 38.1 °F 37.6 °F 30 in Calm     98% 0 in 0 W/m2
19:07 38.1 °F 37.6 °F 30 in Calm     98% 0 in 0 W/m2
19:13 38.3 °F 37.8 °F 30 in Calm     98% 0 in 0 W/m2
19:18 38.3 °F 37.8 °F 30 in Calm     98% 0 in 0 W/m2
19:23 38.1 °F 37.6 °F 30 in Calm     98% 0 in 0 W/m2
19:28 38.1 °F 37.6 °F 30 in Calm     98% 0 in 0 W/m2
19:33 38.1 °F 37.6 °F 30 in Calm     98% 0 in 0 W/m2
19:38 37.9 °F 37.4 °F 30 in Calm     98% 0 in 0 W/m2
19:43 37.9 °F 37.4 °F 30 in Calm     98% 0 in 0 W/m2
19:48 37.8 °F 37.2 °F 30 in Calm     98% 0 in 0 W/m2
19:53 37.8 °F 37.2 °F 30 in Calm     98% 0 in 0 W/m2
19:58 37.6 °F 37 °F 30 in Calm     98% 0 in 0 W/m2
20:03 37.6 °F 37 °F 30 in Calm     98% 0 in 0 W/m2
20:08 37.6 °F 37 °F 30 in Calm     98% 0 in 0 W/m2
20:13 37.6 °F 37 °F 30 in Calm     98% 0 in 0 W/m2
20:18 37.8 °F 37.2 °F 30 in Calm     98% 0 in 0 W/m2
20:23 37.8 °F 37.2 °F 30 in Calm     98% 0 in 0 W/m2
20:28 37.8 °F 37.2 °F 30 in Calm     98% 0 in 0 W/m2
20:33 37.8 °F 37.2 °F 30 in Calm     98% 0 in 0 W/m2
20:38 37.8 °F 37.2 °F 30 in Calm     98% 0 in 0 W/m2
20:43 37.8 °F 37.2 °F 30 in Calm     98% 0 in 0 W/m2
20:48 37.8 °F 37.2 °F 30 in Calm     98% 0 in 0 W/m2
20:53 37.9 °F 37.4 °F 30 in Calm     98% 0 in 0 W/m2
20:58 37.8 °F 37.2 °F 30 in Calm     98% 0 in 0 W/m2
21:03 37.6 °F 37 °F 30 in Calm     98% 0 in 0 W/m2
21:08 37.6 °F 37 °F 30 in Calm     98% 0 in 0 W/m2
21:13 37.2 °F 36.7 °F 30 in Calm     98% 0 in 0 W/m2
21:18 37 °F 36.5 °F 30 in Calm     98% 0 in 0 W/m2
21:23 37 °F 36.5 °F 30 in Calm     98% 0 in 0 W/m2
21:28 37.4 °F 36.9 °F 30 in Calm     98% 0 in 0 W/m2
21:33 37.6 °F 37 °F 30 in Calm   1 mph 98% 0 in 0 W/m2
21:38 37.6 °F 37 °F 30 in Calm     98% 0 in 0 W/m2
21:43 37.8 °F 37.2 °F 30 in Calm     98% 0 in 0 W/m2
21:48 37.8 °F 37.2 °F 30 in Calm     98% 0 in 0 W/m2
21:53 37.8 °F 37.2 °F 30 in Calm     98% 0 in 0 W/m2
21:58 37.8 °F 37.2 °F 30 in Calm     98% 0 in 0 W/m2
22:03 37.8 °F 37.2 °F 30 in Calm     98% 0 in 0 W/m2
22:08 37.8 °F 37.2 °F 30 in Calm     98% 0 in 0 W/m2
22:13 37.8 °F 37.2 °F 30 in Calm     98% 0 in 0 W/m2
22:18 37.9 °F 37.4 °F 30 in Calm     98% 0 in 0 W/m2
22:23 37.9 °F 37.4 °F 30 in Calm     98% 0 in 0 W/m2
22:28 38.1 °F 37.6 °F 30 in Calm     98% 0 in 0 W/m2
22:33 38.1 °F 37.6 °F 30 in Calm     98% 0 in 0 W/m2
22:38 38.5 °F 37.9 °F 30 in Calm     98% 0 in 0 W/m2
22:43 38.8 °F 38.3 °F 30 in Calm     98% 0 in 0 W/m2
22:48 39 °F 38.5 °F 30 in Calm   1 mph 98% 0 in 0 W/m2
22:53 39.7 °F 39.6 °F 30 in Calm     99% 0 in 0 W/m2
22:59 39.9 °F 39.7 °F 30 in Calm     99% 0 in 0 W/m2
23:04 40.3 °F 39.7 °F 30 in Calm     98% 0 in 0 W/m2
23:09 40.6 °F 40.5 °F 30 in Calm     99% 0 in 0 W/m2
23:14 40.5 °F 40.3 °F 30 in Calm   1 mph 99% 0 in 0 W/m2
23:19 40.3 °F 40.1 °F 30 in Calm     99% 0 in 0 W/m2
23:24 40.3 °F 40.1 °F 30 in Calm   1 mph 99% 0 in 0 W/m2
23:29 40.3 °F 40.1 °F 30 in Calm     99% 0 in 0 W/m2
23:34 40.3 °F 40.1 °F 30 in Calm     99% 0 in 0 W/m2
23:39 40.5 °F 40.3 °F 30 in Calm     99% 0 in 0 W/m2
23:44 40.5 °F 40.3 °F 30 in Calm     99% 0 in 0 W/m2
23:49 40.6 °F 40.1 °F 30 in Calm     98% 0 in 0 W/m2
23:54 40.6 °F 40.1 °F 30 in Calm     98% 0 in 0 W/m2
23:59 40.6 °F 40.1 °F 30 in Calm     98% 0 in 0 W/m2
Juneau County Weather
Compliments of Weather Underground - 4 mb